sensor_id;sensor_type;location;lat;lon;timestamp;P1;durP1;ratioP1;P2;durP2;ratioP2
68870;SDS011;55906;52.278;6.808;2023-02-15T00:01:45;23.42;;;14.88;;
68870;SDS011;55906;52.278;6.808;2023-02-15T00:04:12;26.33;;;16.10;;
68870;SDS011;55906;52.278;6.808;2023-02-15T00:06:40;21.52;;;13.48;;
68870;SDS011;55906;52.278;6.808;2023-02-15T00:09:09;22.20;;;13.07;;
68870;SDS011;55906;52.278;6.808;2023-02-15T00:11:37;23.60;;;13.75;;
68870;SDS011;55906;52.278;6.808;2023-02-15T00:14:08;25.40;;;13.77;;
68870;SDS011;55906;52.278;6.808;2023-02-15T00:16:36;21.23;;;13.10;;
68870;SDS011;55906;52.278;6.808;2023-02-15T00:19:03;22.25;;;14.20;;
68870;SDS011;55906;52.278;6.808;2023-02-15T00:21:31;21.20;;;13.73;;
68870;SDS011;55906;52.278;6.808;2023-02-15T00:23:59;20.42;;;14.02;;
68870;SDS011;55906;52.278;6.808;2023-02-15T00:26:28;23.23;;;15.45;;
68870;SDS011;55906;52.278;6.808;2023-02-15T00:28:55;21.63;;;13.83;;
68870;SDS011;55906;52.278;6.808;2023-02-15T00:31:23;23.13;;;15.10;;
68870;SDS011;55906;52.278;6.808;2023-02-15T00:33:50;19.60;;;13.27;;
68870;SDS011;55906;52.278;6.808;2023-02-15T00:36:17;20.90;;;13.00;;
68870;SDS011;55906;52.278;6.808;2023-02-15T00:38:44;24.17;;;13.48;;
68870;SDS011;55906;52.278;6.808;2023-02-15T00:41:10;24.80;;;12.70;;
68870;SDS011;55906;52.278;6.808;2023-02-15T00:43:38;22.30;;;13.52;;
68870;SDS011;55906;52.278;6.808;2023-02-15T00:46:05;24.17;;;13.83;;
68870;SDS011;55906;52.278;6.808;2023-02-15T00:48:32;20.80;;;13.80;;
68870;SDS011;55906;52.278;6.808;2023-02-15T00:50:59;20.48;;;13.15;;
68870;SDS011;55906;52.278;6.808;2023-02-15T00:53:26;24.10;;;14.70;;
68870;SDS011;55906;52.278;6.808;2023-02-15T00:55:54;23.88;;;14.90;;
68870;SDS011;55906;52.278;6.808;2023-02-15T00:58:20;25.20;;;15.73;;
68870;SDS011;55906;52.278;6.808;2023-02-15T01:00:49;25.95;;;16.17;;
68870;SDS011;55906;52.278;6.808;2023-02-15T01:03:16;22.52;;;14.73;;
68870;SDS011;55906;52.278;6.808;2023-02-15T01:05:44;25.23;;;14.70;;
68870;SDS011;55906;52.278;6.808;2023-02-15T01:08:12;21.20;;;14.63;;
68870;SDS011;55906;52.278;6.808;2023-02-15T01:10:38;25.43;;;14.90;;
68870;SDS011;55906;52.278;6.808;2023-02-15T01:13:05;27.42;;;15.40;;
68870;SDS011;55906;52.278;6.808;2023-02-15T01:15:33;25.48;;;14.68;;
68870;SDS011;55906;52.278;6.808;2023-02-15T01:18:02;25.33;;;15.57;;
68870;SDS011;55906;52.278;6.808;2023-02-15T01:20:29;28.63;;;17.05;;
68870;SDS011;55906;52.278;6.808;2023-02-15T01:22:56;27.33;;;17.23;;
68870;SDS011;55906;52.278;6.808;2023-02-15T01:25:24;25.85;;;15.95;;
68870;SDS011;55906;52.278;6.808;2023-02-15T01:27:51;25.23;;;15.57;;
68870;SDS011;55906;52.278;6.808;2023-02-15T01:30:18;28.85;;;17.55;;
68870;SDS011;55906;52.278;6.808;2023-02-15T01:32:45;29.02;;;16.33;;
68870;SDS011;55906;52.278;6.808;2023-02-15T01:35:12;27.40;;;15.43;;
68870;SDS011;55906;52.278;6.808;2023-02-15T01:37:39;24.35;;;15.90;;
68870;SDS011;55906;52.278;6.808;2023-02-15T01:40:07;23.80;;;15.00;;
68870;SDS011;55906;52.278;6.808;2023-02-15T01:42:37;22.63;;;15.07;;
68870;SDS011;55906;52.278;6.808;2023-02-15T01:45:05;25.40;;;14.70;;
68870;SDS011;55906;52.278;6.808;2023-02-15T01:47:47;24.77;;;14.57;;
68870;SDS011;55906;52.278;6.808;2023-02-15T01:50:20;21.65;;;13.32;;
68870;SDS011;55906;52.278;6.808;2023-02-15T01:52:52;22.38;;;13.35;;
68870;SDS011;55906;52.278;6.808;2023-02-15T01:55:24;23.40;;;14.15;;
68870;SDS011;55906;52.278;6.808;2023-02-15T01:57:52;22.15;;;14.15;;
68870;SDS011;55906;52.278;6.808;2023-02-15T02:00:19;22.03;;;13.40;;
68870;SDS011;55906;52.278;6.808;2023-02-15T02:02:47;21.88;;;14.18;;
68870;SDS011;55906;52.278;6.808;2023-02-15T02:05:19;22.77;;;14.88;;
68870;SDS011;55906;52.278;6.808;2023-02-15T02:07:46;20.27;;;12.87;;
68870;SDS011;55906;52.278;6.808;2023-02-15T02:10:17;20.10;;;12.75;;
68870;SDS011;55906;52.278;6.808;2023-02-15T02:12:47;22.45;;;13.60;;
68870;SDS011;55906;52.278;6.808;2023-02-15T02:15:17;22.33;;;13.52;;
68870;SDS011;55906;52.278;6.808;2023-02-15T02:17:49;23.00;;;14.55;;
68870;SDS011;55906;52.278;6.808;2023-02-15T02:23:35;19.90;;;12.15;;
68870;SDS011;55906;52.278;6.808;2023-02-15T02:36:27;22.17;;;13.63;;
68870;SDS011;55906;52.278;6.808;2023-02-15T02:41:51;21.48;;;12.30;;
68870;SDS011;55906;52.278;6.808;2023-02-15T02:44:26;21.65;;;12.75;;
68870;SDS011;55906;52.278;6.808;2023-02-15T02:46:58;18.70;;;12.77;;
68870;SDS011;55906;52.278;6.808;2023-02-15T02:49:29;22.40;;;14.13;;
68870;SDS011;55906;52.278;6.808;2023-02-15T02:51:59;21.05;;;13.77;;
68870;SDS011;55906;52.278;6.808;2023-02-15T02:54:26;22.10;;;12.93;;
68870;SDS011;55906;52.278;6.808;2023-02-15T02:56:54;20.73;;;14.05;;
68870;SDS011;55906;52.278;6.808;2023-02-15T02:59:24;28.27;;;17.15;;
68870;SDS011;55906;52.278;6.808;2023-02-15T03:01:54;30.50;;;18.57;;
68870;SDS011;55906;52.278;6.808;2023-02-15T03:04:25;28.98;;;16.38;;
68870;SDS011;55906;52.278;6.808;2023-02-15T03:06:55;27.23;;;17.40;;
68870;SDS011;55906;52.278;6.808;2023-02-15T03:09:27;24.02;;;14.80;;
68870;SDS011;55906;52.278;6.808;2023-02-15T03:11:59;23.95;;;15.45;;
68870;SDS011;55906;52.278;6.808;2023-02-15T03:14:27;23.13;;;14.38;;
68870;SDS011;55906;52.278;6.808;2023-02-15T03:16:54;22.35;;;12.95;;
68870;SDS011;55906;52.278;6.808;2023-02-15T03:19:22;21.40;;;13.33;;
68870;SDS011;55906;52.278;6.808;2023-02-15T03:21:54;20.20;;;12.15;;
68870;SDS011;55906;52.278;6.808;2023-02-15T03:24:31;18.15;;;12.07;;
68870;SDS011;55906;52.278;6.808;2023-02-15T03:27:02;19.23;;;11.60;;
68870;SDS011;55906;52.278;6.808;2023-02-15T03:29:30;20.30;;;13.32;;
68870;SDS011;55906;52.278;6.808;2023-02-15T03:31:58;20.60;;;12.75;;
68870;SDS011;55906;52.278;6.808;2023-02-15T03:34:28;23.10;;;14.23;;
68870;SDS011;55906;52.278;6.808;2023-02-15T03:36:56;22.13;;;13.65;;
68870;SDS011;55906;52.278;6.808;2023-02-15T03:39:30;19.95;;;11.77;;
68870;SDS011;55906;52.278;6.808;2023-02-15T03:42:03;20.13;;;12.73;;
68870;SDS011;55906;52.278;6.808;2023-02-15T03:44:36;19.83;;;11.80;;
68870;SDS011;55906;52.278;6.808;2023-02-15T03:47:11;19.98;;;11.60;;
68870;SDS011;55906;52.278;6.808;2023-02-15T03:49:42;19.42;;;11.40;;
68870;SDS011;55906;52.278;6.808;2023-02-15T03:52:13;18.33;;;11.43;;
68870;SDS011;55906;52.278;6.808;2023-02-15T03:54:42;20.10;;;12.27;;
68870;SDS011;55906;52.278;6.808;2023-02-15T03:57:12;19.10;;;12.13;;
68870;SDS011;55906;52.278;6.808;2023-02-15T03:59:58;18.92;;;11.65;;
68870;SDS011;55906;52.278;6.808;2023-02-15T04:02:46;18.35;;;11.80;;
68870;SDS011;55906;52.278;6.808;2023-02-15T04:05:26;18.58;;;12.25;;
68870;SDS011;55906;52.278;6.808;2023-02-15T04:07:53;20.65;;;12.82;;
68870;SDS011;55906;52.278;6.808;2023-02-15T04:10:21;20.30;;;12.33;;
68870;SDS011;55906;52.278;6.808;2023-02-15T04:13:05;17.20;;;11.52;;
68870;SDS011;55906;52.278;6.808;2023-02-15T04:15:31;17.67;;;11.35;;
68870;SDS011;55906;52.278;6.808;2023-02-15T04:18:21;20.57;;;12.33;;
68870;SDS011;55906;52.278;6.808;2023-02-15T04:21:01;15.75;;;10.15;;
68870;SDS011;55906;52.278;6.808;2023-02-15T04:23:46;15.80;;;10.85;;
68870;SDS011;55906;52.278;6.808;2023-02-15T04:26:31;16.95;;;10.27;;
68870;SDS011;55906;52.278;6.808;2023-02-15T04:28:58;15.65;;;9.80;;
68870;SDS011;55906;52.278;6.808;2023-02-15T04:31:25;16.45;;;11.10;;
68870;SDS011;55906;52.278;6.808;2023-02-15T04:33:51;18.83;;;11.73;;
68870;SDS011;55906;52.278;6.808;2023-02-15T04:36:18;16.97;;;10.73;;
68870;SDS011;55906;52.278;6.808;2023-02-15T04:38:44;15.73;;;10.43;;
68870;SDS011;55906;52.278;6.808;2023-02-15T04:41:11;15.15;;;9.70;;
68870;SDS011;55906;52.278;6.808;2023-02-15T04:43:39;13.80;;;9.80;;
68870;SDS011;55906;52.278;6.808;2023-02-15T04:46:06;17.70;;;10.25;;
68870;SDS011;55906;52.278;6.808;2023-02-15T04:48:32;15.57;;;9.85;;
68870;SDS011;55906;52.278;6.808;2023-02-15T04:50:59;15.80;;;9.25;;
68870;SDS011;55906;52.278;6.808;2023-02-15T04:53:25;18.45;;;11.13;;
68870;SDS011;55906;52.278;6.808;2023-02-15T04:55:52;16.95;;;10.20;;
68870;SDS011;55906;52.278;6.808;2023-02-15T04:58:19;15.10;;;9.80;;
68870;SDS011;55906;52.278;6.808;2023-02-15T05:00:47;18.43;;;10.53;;
68870;SDS011;55906;52.278;6.808;2023-02-15T05:03:13;16.65;;;10.02;;
68870;SDS011;55906;52.278;6.808;2023-02-15T05:05:40;16.48;;;10.30;;
68870;SDS011;55906;52.278;6.808;2023-02-15T05:08:06;19.43;;;11.10;;
68870;SDS011;55906;52.278;6.808;2023-02-15T05:10:33;16.95;;;11.18;;
68870;SDS011;55906;52.278;6.808;2023-02-15T05:13:00;17.13;;;9.80;;
68870;SDS011;55906;52.278;6.808;2023-02-15T05:15:26;16.65;;;11.65;;
68870;SDS011;55906;52.278;6.808;2023-02-15T05:17:54;15.95;;;10.35;;
68870;SDS011;55906;52.278;6.808;2023-02-15T05:20:21;17.60;;;10.88;;
68870;SDS011;55906;52.278;6.808;2023-02-15T05:22:47;17.00;;;9.95;;
68870;SDS011;55906;52.278;6.808;2023-02-15T05:25:14;17.57;;;10.00;;
68870;SDS011;55906;52.278;6.808;2023-02-15T05:27:57;15.10;;;10.32;;
68870;SDS011;55906;52.278;6.808;2023-02-15T05:30:41;17.02;;;10.80;;
68870;SDS011;55906;52.278;6.808;2023-02-15T05:33:10;19.07;;;12.67;;
68870;SDS011;55906;52.278;6.808;2023-02-15T05:35:36;20.25;;;12.80;;
68870;SDS011;55906;52.278;6.808;2023-02-15T05:38:03;19.33;;;10.80;;
68870;SDS011;55906;52.278;6.808;2023-02-15T05:40:30;16.40;;;10.85;;
68870;SDS011;55906;52.278;6.808;2023-02-15T05:42:56;16.40;;;10.10;;
68870;SDS011;55906;52.278;6.808;2023-02-15T05:45:23;18.05;;;10.95;;
68870;SDS011;55906;52.278;6.808;2023-02-15T05:47:50;19.50;;;11.55;;
68870;SDS011;55906;52.278;6.808;2023-02-15T05:50:18;18.87;;;10.37;;
68870;SDS011;55906;52.278;6.808;2023-02-15T05:52:44;17.13;;;10.23;;
68870;SDS011;55906;52.278;6.808;2023-02-15T05:55:11;16.30;;;9.65;;
68870;SDS011;55906;52.278;6.808;2023-02-15T05:57:38;15.97;;;9.97;;
68870;SDS011;55906;52.278;6.808;2023-02-15T06:00:05;16.48;;;9.82;;
68870;SDS011;55906;52.278;6.808;2023-02-15T06:02:52;17.25;;;10.77;;
68870;SDS011;55906;52.278;6.808;2023-02-15T06:05:20;16.13;;;10.27;;
68870;SDS011;55906;52.278;6.808;2023-02-15T06:07:47;17.15;;;10.45;;
68870;SDS011;55906;52.278;6.808;2023-02-15T06:10:14;19.98;;;10.88;;
68870;SDS011;55906;52.278;6.808;2023-02-15T06:12:41;17.80;;;11.27;;
68870;SDS011;55906;52.278;6.808;2023-02-15T06:15:08;18.60;;;10.10;;
68870;SDS011;55906;52.278;6.808;2023-02-15T06:17:35;17.52;;;11.13;;
68870;SDS011;55906;52.278;6.808;2023-02-15T06:20:01;19.20;;;11.43;;
68870;SDS011;55906;52.278;6.808;2023-02-15T06:22:30;17.70;;;11.70;;
68870;SDS011;55906;52.278;6.808;2023-02-15T06:24:57;20.65;;;11.40;;
68870;SDS011;55906;52.278;6.808;2023-02-15T06:27:23;19.52;;;12.00;;
68870;SDS011;55906;52.278;6.808;2023-02-15T06:29:50;19.60;;;12.05;;
68870;SDS011;55906;52.278;6.808;2023-02-15T06:32:17;19.23;;;11.80;;
68870;SDS011;55906;52.278;6.808;2023-02-15T06:34:43;19.40;;;12.30;;
68870;SDS011;55906;52.278;6.808;2023-02-15T06:37:10;20.77;;;12.35;;
68870;SDS011;55906;52.278;6.808;2023-02-15T06:39:38;18.83;;;11.97;;
68870;SDS011;55906;52.278;6.808;2023-02-15T06:42:04;19.80;;;12.57;;
68870;SDS011;55906;52.278;6.808;2023-02-15T06:44:31;19.90;;;12.02;;
68870;SDS011;55906;52.278;6.808;2023-02-15T06:46:57;19.43;;;11.83;;
68870;SDS011;55906;52.278;6.808;2023-02-15T06:49:24;19.88;;;11.80;;
68870;SDS011;55906;52.278;6.808;2023-02-15T06:51:51;18.83;;;11.45;;
68870;SDS011;55906;52.278;6.808;2023-02-15T06:54:18;19.73;;;11.75;;
68870;SDS011;55906;52.278;6.808;2023-02-15T06:56:46;19.48;;;10.98;;
68870;SDS011;55906;52.278;6.808;2023-02-15T06:59:12;18.80;;;10.95;;
68870;SDS011;55906;52.278;6.808;2023-02-15T07:01:39;23.67;;;13.35;;
68870;SDS011;55906;52.278;6.808;2023-02-15T07:04:05;29.57;;;15.87;;
68870;SDS011;55906;52.278;6.808;2023-02-15T07:06:32;26.58;;;15.23;;
68870;SDS011;55906;52.278;6.808;2023-02-15T07:08:59;26.75;;;14.55;;
68870;SDS011;55906;52.278;6.808;2023-02-15T07:11:26;20.67;;;13.17;;
68870;SDS011;55906;52.278;6.808;2023-02-15T07:14:12;32.25;;;17.27;;
68870;SDS011;55906;52.278;6.808;2023-02-15T07:16:39;27.88;;;14.98;;
68870;SDS011;55906;52.278;6.808;2023-02-15T07:19:05;33.15;;;18.45;;
68870;SDS011;55906;52.278;6.808;2023-02-15T07:21:33;30.15;;;16.13;;
68870;SDS011;55906;52.278;6.808;2023-02-15T07:24:00;40.85;;;20.50;;
68870;SDS011;55906;52.278;6.808;2023-02-15T07:26:27;35.72;;;18.90;;
68870;SDS011;55906;52.278;6.808;2023-02-15T07:28:53;33.20;;;18.80;;
68870;SDS011;55906;52.278;6.808;2023-02-15T07:31:21;34.88;;;19.63;;
68870;SDS011;55906;52.278;6.808;2023-02-15T07:33:48;45.70;;;21.63;;
68870;SDS011;55906;52.278;6.808;2023-02-15T07:36:15;48.33;;;23.53;;
68870;SDS011;55906;52.278;6.808;2023-02-15T07:38:41;41.55;;;21.25;;
68870;SDS011;55906;52.278;6.808;2023-02-15T07:41:08;41.33;;;21.88;;
68870;SDS011;55906;52.278;6.808;2023-02-15T07:43:36;41.15;;;22.45;;
68870;SDS011;55906;52.278;6.808;2023-02-15T07:46:05;50.30;;;23.75;;
68870;SDS011;55906;52.278;6.808;2023-02-15T07:48:35;46.20;;;24.95;;
68870;SDS011;55906;52.278;6.808;2023-02-15T07:51:03;46.90;;;23.65;;
68870;SDS011;55906;52.278;6.808;2023-02-15T07:53:31;41.70;;;23.03;;
68870;SDS011;55906;52.278;6.808;2023-02-15T07:55:58;46.35;;;24.02;;
68870;SDS011;55906;52.278;6.808;2023-02-15T07:58:25;39.97;;;21.98;;
68870;SDS011;55906;52.278;6.808;2023-02-15T08:01:11;40.70;;;21.25;;
68870;SDS011;55906;52.278;6.808;2023-02-15T08:03:39;42.53;;;22.92;;
68870;SDS011;55906;52.278;6.808;2023-02-15T08:06:06;39.20;;;22.35;;
68870;SDS011;55906;52.278;6.808;2023-02-15T08:08:33;40.33;;;22.25;;
68870;SDS011;55906;52.278;6.808;2023-02-15T08:11:01;42.08;;;22.65;;
68870;SDS011;55906;52.278;6.808;2023-02-15T08:13:46;43.07;;;22.73;;
68870;SDS011;55906;52.278;6.808;2023-02-15T08:16:21;35.65;;;20.23;;
68870;SDS011;55906;52.278;6.808;2023-02-15T08:18:49;38.00;;;20.60;;
68870;SDS011;55906;52.278;6.808;2023-02-15T08:21:17;39.35;;;22.55;;
68870;SDS011;55906;52.278;6.808;2023-02-15T08:23:44;38.72;;;21.88;;
68870;SDS011;55906;52.278;6.808;2023-02-15T08:26:11;34.53;;;21.33;;
68870;SDS011;55906;52.278;6.808;2023-02-15T08:28:38;40.67;;;22.38;;
68870;SDS011;55906;52.278;6.808;2023-02-15T08:31:05;43.70;;;22.63;;
68870;SDS011;55906;52.278;6.808;2023-02-15T08:33:32;39.28;;;22.33;;
68870;SDS011;55906;52.278;6.808;2023-02-15T08:36:03;38.67;;;22.45;;
68870;SDS011;55906;52.278;6.808;2023-02-15T08:38:30;36.73;;;21.07;;
68870;SDS011;55906;52.278;6.808;2023-02-15T08:40:58;41.50;;;21.85;;
68870;SDS011;55906;52.278;6.808;2023-02-15T08:43:34;40.15;;;23.23;;
68870;SDS011;55906;52.278;6.808;2023-02-15T08:46:00;38.05;;;21.58;;
68870;SDS011;55906;52.278;6.808;2023-02-15T08:48:27;40.10;;;22.67;;
68870;SDS011;55906;52.278;6.808;2023-02-15T08:50:54;38.33;;;21.07;;
68870;SDS011;55906;52.278;6.808;2023-02-15T08:53:22;41.70;;;23.20;;
68870;SDS011;55906;52.278;6.808;2023-02-15T08:55:54;39.22;;;22.13;;
68870;SDS011;55906;52.278;6.808;2023-02-15T08:58:21;35.40;;;21.20;;
68870;SDS011;55906;52.278;6.808;2023-02-15T09:00:48;38.38;;;22.08;;
68870;SDS011;55906;52.278;6.808;2023-02-15T09:03:15;40.43;;;22.47;;
68870;SDS011;55906;52.278;6.808;2023-02-15T09:05:41;41.28;;;21.83;;
68870;SDS011;55906;52.278;6.808;2023-02-15T09:08:08;37.78;;;21.98;;
68870;SDS011;55906;52.278;6.808;2023-02-15T09:10:36;34.22;;;21.27;;
68870;SDS011;55906;52.278;6.808;2023-02-15T09:13:02;40.13;;;22.83;;
68870;SDS011;55906;52.278;6.808;2023-02-15T09:15:29;34.87;;;20.10;;
68870;SDS011;55906;52.278;6.808;2023-02-15T09:17:55;34.40;;;19.35;;
68870;SDS011;55906;52.278;6.808;2023-02-15T09:20:24;38.70;;;22.73;;
68870;SDS011;55906;52.278;6.808;2023-02-15T09:22:51;36.30;;;21.35;;
68870;SDS011;55906;52.278;6.808;2023-02-15T09:25:18;32.88;;;20.58;;
68870;SDS011;55906;52.278;6.808;2023-02-15T09:27:46;35.90;;;21.43;;
68870;SDS011;55906;52.278;6.808;2023-02-15T09:30:12;37.92;;;21.60;;
68870;SDS011;55906;52.278;6.808;2023-02-15T09:32:39;32.63;;;20.27;;
68870;SDS011;55906;52.278;6.808;2023-02-15T09:35:06;37.88;;;21.95;;
68870;SDS011;55906;52.278;6.808;2023-02-15T09:37:33;36.78;;;22.15;;
68870;SDS011;55906;52.278;6.808;2023-02-15T09:40:00;36.17;;;21.43;;
68870;SDS011;55906;52.278;6.808;2023-02-15T09:42:31;33.67;;;20.70;;
68870;SDS011;55906;52.278;6.808;2023-02-15T09:45:19;37.08;;;21.52;;
68870;SDS011;55906;52.278;6.808;2023-02-15T09:48:09;33.55;;;21.08;;
68870;SDS011;55906;52.278;6.808;2023-02-15T09:50:54;36.88;;;22.17;;
68870;SDS011;55906;52.278;6.808;2023-02-15T09:53:45;32.00;;;20.67;;
68870;SDS011;55906;52.278;6.808;2023-02-15T09:56:28;31.23;;;19.40;;
68870;SDS011;55906;52.278;6.808;2023-02-15T09:59:04;33.47;;;20.45;;
68870;SDS011;55906;52.278;6.808;2023-02-15T10:01:41;35.25;;;22.38;;
68870;SDS011;55906;52.278;6.808;2023-02-15T10:04:29;37.92;;;22.25;;
68870;SDS011;55906;52.278;6.808;2023-02-15T10:07:10;34.27;;;20.63;;
68870;SDS011;55906;52.278;6.808;2023-02-15T10:09:53;35.55;;;21.23;;
68870;SDS011;55906;52.278;6.808;2023-02-15T10:12:32;33.88;;;21.17;;
68870;SDS011;55906;52.278;6.808;2023-02-15T10:15:30;31.15;;;19.35;;
68870;SDS011;55906;52.278;6.808;2023-02-15T10:18:09;31.90;;;19.52;;
68870;SDS011;55906;52.278;6.808;2023-02-15T10:20:50;36.03;;;21.20;;
68870;SDS011;55906;52.278;6.808;2023-02-15T10:23:29;29.98;;;18.38;;
68870;SDS011;55906;52.278;6.808;2023-02-15T10:26:10;30.25;;;18.83;;
68870;SDS011;55906;52.278;6.808;2023-02-15T10:28:43;27.50;;;17.25;;
68870;SDS011;55906;52.278;6.808;2023-02-15T10:31:17;31.33;;;20.33;;
68870;SDS011;55906;52.278;6.808;2023-02-15T10:33:55;29.37;;;17.53;;
68870;SDS011;55906;52.278;6.808;2023-02-15T10:36:38;32.08;;;19.77;;
68870;SDS011;55906;52.278;6.808;2023-02-15T10:39:25;36.55;;;20.92;;
68870;SDS011;55906;52.278;6.808;2023-02-15T10:41:59;35.10;;;22.33;;
68870;SDS011;55906;52.278;6.808;2023-02-15T10:44:36;29.50;;;19.65;;
68870;SDS011;55906;52.278;6.808;2023-02-15T10:47:15;30.33;;;19.37;;
68870;SDS011;55906;52.278;6.808;2023-02-15T10:50:00;35.33;;;22.75;;
68870;SDS011;55906;52.278;6.808;2023-02-15T10:52:48;35.92;;;21.02;;
68870;SDS011;55906;52.278;6.808;2023-02-15T10:55:25;35.33;;;20.63;;
68870;SDS011;55906;52.278;6.808;2023-02-15T10:58:07;32.95;;;20.50;;
68870;SDS011;55906;52.278;6.808;2023-02-15T11:00:44;24.70;;;16.23;;
68870;SDS011;55906;52.278;6.808;2023-02-15T11:03:24;30.70;;;19.50;;
68870;SDS011;55906;52.278;6.808;2023-02-15T11:06:02;33.35;;;20.52;;
68870;SDS011;55906;52.278;6.808;2023-02-15T11:08:36;26.60;;;16.45;;
68870;SDS011;55906;52.278;6.808;2023-02-15T11:11:06;31.05;;;19.02;;
68870;SDS011;55906;52.278;6.808;2023-02-15T11:13:38;28.83;;;19.33;;
68870;SDS011;55906;52.278;6.808;2023-02-15T11:16:08;31.17;;;19.25;;
68870;SDS011;55906;52.278;6.808;2023-02-15T11:18:41;24.90;;;16.23;;
68870;SDS011;55906;52.278;6.808;2023-02-15T11:21:13;31.55;;;19.63;;
68870;SDS011;55906;52.278;6.808;2023-02-15T11:23:46;31.85;;;19.42;;
68870;SDS011;55906;52.278;6.808;2023-02-15T11:26:14;28.03;;;17.30;;
68870;SDS011;55906;52.278;6.808;2023-02-15T11:28:47;31.13;;;17.25;;
68870;SDS011;55906;52.278;6.808;2023-02-15T11:31:19;35.90;;;21.35;;
68870;SDS011;55906;52.278;6.808;2023-02-15T11:33:49;28.50;;;18.30;;
68870;SDS011;55906;52.278;6.808;2023-02-15T11:36:22;31.77;;;19.35;;
68870;SDS011;55906;52.278;6.808;2023-02-15T11:38:52;25.13;;;16.25;;
68870;SDS011;55906;52.278;6.808;2023-02-15T11:41:25;27.60;;;16.77;;
68870;SDS011;55906;52.278;6.808;2023-02-15T11:43:56;32.00;;;19.67;;
68870;SDS011;55906;52.278;6.808;2023-02-15T11:46:28;27.73;;;18.05;;
68870;SDS011;55906;52.278;6.808;2023-02-15T11:48:54;30.80;;;19.02;;
68870;SDS011;55906;52.278;6.808;2023-02-15T11:51:24;30.57;;;19.00;;
68870;SDS011;55906;52.278;6.808;2023-02-15T11:53:53;26.15;;;16.42;;
68870;SDS011;55906;52.278;6.808;2023-02-15T11:56:21;27.50;;;16.15;;
68870;SDS011;55906;52.278;6.808;2023-02-15T11:58:51;30.27;;;18.73;;
68870;SDS011;55906;52.278;6.808;2023-02-15T12:01:21;29.08;;;18.40;;
68870;SDS011;55906;52.278;6.808;2023-02-15T12:03:53;30.03;;;18.43;;
68870;SDS011;55906;52.278;6.808;2023-02-15T12:06:25;29.20;;;18.27;;
68870;SDS011;55906;52.278;6.808;2023-02-15T12:09:01;29.17;;;16.98;;
68870;SDS011;55906;52.278;6.808;2023-02-15T12:11:33;32.05;;;17.95;;
68870;SDS011;55906;52.278;6.808;2023-02-15T12:14:03;32.47;;;18.90;;
68870;SDS011;55906;52.278;6.808;2023-02-15T12:16:32;31.10;;;18.27;;
68870;SDS011;55906;52.278;6.808;2023-02-15T12:19:10;32.50;;;18.02;;
68870;SDS011;55906;52.278;6.808;2023-02-15T12:21:48;37.35;;;20.40;;
68870;SDS011;55906;52.278;6.808;2023-02-15T12:24:17;31.50;;;17.98;;
68870;SDS011;55906;52.278;6.808;2023-02-15T12:26:55;32.65;;;18.30;;
68870;SDS011;55906;52.278;6.808;2023-02-15T12:29:25;28.93;;;17.60;;
68870;SDS011;55906;52.278;6.808;2023-02-15T12:31:55;33.45;;;20.05;;
68870;SDS011;55906;52.278;6.808;2023-02-15T12:34:25;32.42;;;18.15;;
68870;SDS011;55906;52.278;6.808;2023-02-15T12:36:57;29.42;;;17.52;;
68870;SDS011;55906;52.278;6.808;2023-02-15T12:39:27;34.22;;;19.02;;
68870;SDS011;55906;52.278;6.808;2023-02-15T12:41:57;33.80;;;18.83;;
68870;SDS011;55906;52.278;6.808;2023-02-15T12:44:27;30.65;;;17.48;;
68870;SDS011;55906;52.278;6.808;2023-02-15T12:46:56;29.20;;;18.23;;
68870;SDS011;55906;52.278;6.808;2023-02-15T12:49:24;30.27;;;17.40;;
68870;SDS011;55906;52.278;6.808;2023-02-15T12:51:52;32.80;;;17.63;;
68870;SDS011;55906;52.278;6.808;2023-02-15T12:54:27;29.33;;;16.43;;
68870;SDS011;55906;52.278;6.808;2023-02-15T12:56:56;33.15;;;18.40;;
68870;SDS011;55906;52.278;6.808;2023-02-15T12:59:23;31.98;;;17.80;;
68870;SDS011;55906;52.278;6.808;2023-02-15T13:01:50;27.20;;;15.75;;
68870;SDS011;55906;52.278;6.808;2023-02-15T13:04:21;32.08;;;18.10;;
68870;SDS011;55906;52.278;6.808;2023-02-15T13:06:51;27.77;;;15.87;;
68870;SDS011;55906;52.278;6.808;2023-02-15T13:09:20;33.70;;;18.20;;
68870;SDS011;55906;52.278;6.808;2023-02-15T13:11:54;35.88;;;18.90;;
68870;SDS011;55906;52.278;6.808;2023-02-15T13:14:22;33.22;;;18.23;;
68870;SDS011;55906;52.278;6.808;2023-02-15T13:16:58;28.33;;;16.95;;
68870;SDS011;55906;52.278;6.808;2023-02-15T13:19:29;33.60;;;18.77;;
68870;SDS011;55906;52.278;6.808;2023-02-15T13:22:00;32.22;;;17.98;;
68870;SDS011;55906;52.278;6.808;2023-02-15T13:24:32;30.08;;;17.80;;
68870;SDS011;55906;52.278;6.808;2023-02-15T13:27:03;34.17;;;17.67;;
68870;SDS011;55906;52.278;6.808;2023-02-15T13:29:33;31.77;;;18.23;;
68870;SDS011;55906;52.278;6.808;2023-02-15T13:32:05;33.23;;;18.30;;
68870;SDS011;55906;52.278;6.808;2023-02-15T13:34:37;29.88;;;16.17;;
68870;SDS011;55906;52.278;6.808;2023-02-15T13:37:06;31.83;;;16.88;;
68870;SDS011;55906;52.278;6.808;2023-02-15T13:39:38;30.88;;;16.92;;
68870;SDS011;55906;52.278;6.808;2023-02-15T13:42:16;31.63;;;17.38;;
68870;SDS011;55906;52.278;6.808;2023-02-15T13:44:51;30.80;;;17.30;;
68870;SDS011;55906;52.278;6.808;2023-02-15T13:47:30;29.33;;;16.02;;
68870;SDS011;55906;52.278;6.808;2023-02-15T13:50:07;30.42;;;17.58;;
68870;SDS011;55906;52.278;6.808;2023-02-15T13:52:47;24.90;;;12.95;;
68870;SDS011;55906;52.278;6.808;2023-02-15T13:55:31;26.50;;;15.27;;
68870;SDS011;55906;52.278;6.808;2023-02-15T13:58:16;28.60;;;16.77;;
68870;SDS011;55906;52.278;6.808;2023-02-15T14:01:04;26.10;;;15.23;;
68870;SDS011;55906;52.278;6.808;2023-02-15T14:06:29;30.40;;;17.40;;
68870;SDS011;55906;52.278;6.808;2023-02-15T14:09:14;32.72;;;17.38;;
68870;SDS011;55906;52.278;6.808;2023-02-15T14:11:52;30.55;;;17.55;;
68870;SDS011;55906;52.278;6.808;2023-02-15T14:14:35;29.08;;;16.42;;
68870;SDS011;55906;52.278;6.808;2023-02-15T14:17:12;28.17;;;16.23;;
68870;SDS011;55906;52.278;6.808;2023-02-15T14:19:50;29.65;;;16.10;;
68870;SDS011;55906;52.278;6.808;2023-02-15T14:22:23;31.60;;;16.83;;
68870;SDS011;55906;52.278;6.808;2023-02-15T14:24:59;30.07;;;16.87;;
68870;SDS011;55906;52.278;6.808;2023-02-15T14:27:43;29.02;;;16.27;;
68870;SDS011;55906;52.278;6.808;2023-02-15T14:30:21;28.88;;;17.23;;
68870;SDS011;55906;52.278;6.808;2023-02-15T14:32:52;27.95;;;15.93;;
68870;SDS011;55906;52.278;6.808;2023-02-15T14:35:21;33.38;;;18.38;;
68870;SDS011;55906;52.278;6.808;2023-02-15T14:37:52;31.83;;;18.40;;
68870;SDS011;55906;52.278;6.808;2023-02-15T14:40:28;29.13;;;16.40;;
68870;SDS011;55906;52.278;6.808;2023-02-15T14:43:24;32.88;;;18.73;;
68870;SDS011;55906;52.278;6.808;2023-02-15T14:46:00;34.60;;;17.83;;
68870;SDS011;55906;52.278;6.808;2023-02-15T14:48:36;29.55;;;16.10;;
68870;SDS011;55906;52.278;6.808;2023-02-15T14:51:07;29.83;;;16.13;;
68870;SDS011;55906;52.278;6.808;2023-02-15T14:53:35;32.85;;;17.40;;
68870;SDS011;55906;52.278;6.808;2023-02-15T14:56:05;29.92;;;16.27;;
68870;SDS011;55906;52.278;6.808;2023-02-15T14:58:54;29.80;;;17.10;;
68870;SDS011;55906;52.278;6.808;2023-02-15T15:01:26;29.05;;;16.08;;
68870;SDS011;55906;52.278;6.808;2023-02-15T15:03:55;31.27;;;15.70;;